Time;durP1;ratioP1;P1;durP2;ratioP2;P2;SDS_P1;SDS_P2;PMS_P1;PMS_P2;Temp;Humidity;BMP_temperature;BMP_pressure;BME280_temperature;BME280_humidity;BME280_pressure;Samples;Min_cycle;Max_cycle;Signal;HPM_P1;HPM_P2
2022/08/15 00:01:24;;;;;;;9.68;5.78;;;;;;;30.85;60.17;100723.13;5079734;28;70659;-31
2022/08/15 00:04:00;;;;;;;10.60;5.97;;;;;;;30.33;62.07;100625.91;5078970;27;66747;-31
2022/08/15 00:06:41;;;;;;;9.20;5.72;;;;;;;30.38;63.33;100628.78;5078216;28;70708;-31
2022/08/15 00:09:22;;;;;;;9.80;5.97;;;;;;;30.62;64.37;100659.59;5078576;28;66837;-31
2022/08/15 00:12:17;;;;;;;12.60;6.65;;;;;;;31.08;64.31;100723.28;5064987;28;71595;-30
2022/08/15 00:15:08;;;;;;;14.57;7.00;;;;;;;30.47;65.59;100627.44;5071874;27;66927;-30
2022/08/15 00:17:43;;;;;;;24.58;8.25;;;;;;;30.67;68.12;100664.31;5080759;28;70845;-32
2022/08/15 00:20:19;;;;;;;25.25;8.35;;;;;;;31.13;69.95;100734.28;5077069;27;66295;-31
2022/08/15 00:23:07;;;;;;;19.00;9.75;;;;;;;31.06;70.11;100714.53;5081492;27;70670;-32
2022/08/15 00:25:41;;;;;;;16.60;10.60;;;;;;;31.08;70.18;100709.72;5076655;27;66362;-31
2022/08/15 00:28:14;;;;;;;14.13;12.27;;;;;;;31.16;70.00;100728.41;5080034;28;70111;-33
2022/08/15 00:30:49;;;;;;;17.23;15.13;;;;;;;31.23;69.59;100725.63;5077557;28;67107;-31
2022/08/15 00:33:30;;;;;;;29.95;22.08;;;;;;;31.32;69.62;100731.56;5078397;28;71083;-30
2022/08/15 00:36:04;;;;;;;25.52;20.83;;;;;;;31.32;65.30;100699.88;5060893;28;67060;-30
2022/08/15 00:38:59;;;;;;;22.90;20.58;;;;;;;30.99;64.43;100635.25;5080392;27;70270;-30
2022/08/15 00:41:39;;;;;;;24.83;22.00;;;;;;;31.69;63.45;100739.69;5081175;28;67199;-31
2022/08/15 00:44:14;;;;;;;29.50;26.30;;;;;;;31.75;63.02;100739.56;5079488;28;70247;-30
2022/08/15 00:46:57;;;;;;;30.73;27.10;;;;;;;31.35;62.76;100672.31;5080738;27;66988;-30
2022/08/15 00:49:33;;;;;;;37.47;32.58;;;;;;;31.89;62.81;100750.25;5080024;28;70108;-31
2022/08/15 00:52:30;;;;;;;36.33;32.30;;;;;;;31.96;62.64;100751.03;5059796;28;67093;-30
2022/08/15 00:55:16;;;;;;;41.72;36.97;;;;;;;31.95;63.54;100736.59;5077020;27;70942;-31
2022/08/15 00:57:56;;;;;;;45.40;40.47;;;;;;;32.04;62.93;100751.50;5079251;27;65979;-30
2022/08/15 01:00:42;;;;;;;47.25;39.58;;;;;;;31.78;63.63;100701.13;5078720;27;70314;-30
2022/08/15 01:03:24;;;;;;;45.17;40.08;;;;;;;31.56;63.30;100662.84;5061405;27;66395;-31
2022/08/15 01:06:00;;;;;;;47.85;42.08;;;;;;;31.71;63.30;100680.63;5080245;28;70693;-30
2022/08/15 01:08:39;;;;;;;52.00;43.58;;;;;;;32.20;63.34;100754.59;5078229;27;67185;-30
2022/08/15 01:11:16;;;;;;;48.28;42.83;;;;;;;32.23;63.81;100759.56;5080262;27;70749;-32
2022/08/15 01:13:51;;;;;;;46.20;41.25;;;;;;;32.24;63.19;100758.53;5079550;27;65229;-30
2022/08/15 01:16:39;;;;;;;44.65;38.80;;;;;;;31.84;63.31;100685.81;5080443;27;69726;-30
2022/08/15 01:19:27;;;;;;;50.78;45.17;;;;;;;32.23;64.21;100748.72;5080276;28;67039;-30
2022/08/15 01:22:36;;;;;;;53.85;46.72;;;;;;;32.25;65.04;100762.88;5061995;28;70824;-30
2022/08/15 01:25:52;;;;;;;58.78;52.03;;;;;;;32.24;65.51;100769.38;5080366;28;68310;-31
2022/08/15 01:28:47;;;;;;;60.30;50.42;;;;;;;32.30;63.81;100763.03;5080419;28;70750;-31
2022/08/15 01:31:25;;;;;;;54.95;48.70;;;;;;;32.43;63.82;100770.97;5062407;28;67928;-32
2022/08/15 01:34:00;;;;;;;54.75;48.40;;;;;;;32.46;63.68;100770.53;5058908;27;71253;-31
2022/08/15 01:36:44;;;;;;;59.08;52.67;;;;;;;32.48;63.54;100768.41;5062289;28;66255;-31
2022/08/15 01:39:31;;;;;;;58.40;51.95;;;;;;;32.54;63.86;100773.94;5061962;28;70671;-30
2022/08/15 01:42:16;;;;;;;59.85;52.83;;;;;;;32.54;64.69;100776.66;5075011;27;66227;-31
2022/08/15 01:45:03;;;;;;;56.55;50.22;;;;;;;32.09;63.58;100693.00;5077491;28;71054;-34
2022/08/15 01:47:36;;;;;;;59.40;52.85;;;;;;;32.59;63.71;100768.63;5060272;28;66989;-34
2022/08/15 01:50:15;;;;;;;60.55;53.97;;;;;;;32.62;63.67;100779.84;5075606;27;70893;-31
2022/08/15 01:53:08;;;;;;;57.78;51.55;;;;;;;32.64;63.81;100761.44;5065853;28;67487;-30
2022/08/15 01:56:09;;;;;;;59.77;51.57;;;;;;;32.20;64.42;100705.75;5078001;27;70905;-31
2022/08/15 01:59:04;;;;;;;65.47;55.92;;;;;;;32.67;63.82;100760.13;5059394;28;67141;-31
2022/08/15 02:01:50;;;;;;;59.90;53.45;;;;;;;31.71;64.25;100601.97;5055985;28;70704;-32
2022/08/15 02:04:39;;;;;;;60.20;52.10;;;;;;;32.33;64.44;100694.69;5061402;28;67068;-31
2022/08/15 02:07:20;;;;;;;53.22;47.75;;;;;;;32.41;63.66;100702.50;5077340;27;71219;-31
2022/08/15 02:09:56;;;;;;;55.88;48.08;;;;;;;32.71;63.86;100745.03;5057311;27;67091;-33
2022/08/15 02:12:49;;;;;;;49.60;42.60;;;;;;;32.78;63.78;100745.72;5043690;28;70274;-31
2022/08/15 02:15:43;;;;;;;43.55;38.90;;;;;;;32.75;64.22;100735.34;5056267;28;66619;-33
2022/08/15 02:18:18;;;;;;;40.15;35.35;;;;;;;32.82;64.02;100752.38;5059248;28;70898;-31
2022/08/15 02:20:57;;;;;;;42.30;36.67;;;;;;;32.84;64.25;100755.66;5061820;28;66131;-30
2022/08/15 02:23:31;;;;;;;41.03;33.28;;;;;;;32.86;64.06;100750.00;5060290;28;71048;-31
2022/08/15 02:26:08;;;;;;;33.95;29.88;;;;;;;32.33;63.90;100662.13;5059639;28;66347;-30
2022/08/15 02:28:43;;;;;;;34.53;28.83;;;;;;;32.91;64.15;100744.69;5061028;28;69466;-32
2022/08/15 02:31:25;;;;;;;29.90;25.02;;;;;;;32.78;65.01;100726.72;5079048;27;66677;-32
2022/08/15 02:34:06;;;;;;;24.80;21.38;;;;;;;32.56;64.16;100682.22;5060858;28;71013;-31
2022/08/15 02:36:48;;;;;;;19.83;17.83;;;;;;;32.97;64.35;100742.91;5079101;28;66848;-31
2022/08/15 02:39:24;;;;;;;22.48;20.08;;;;;;;32.99;64.15;100743.47;5075195;27;70988;-33
2022/08/15 02:41:57;;;;;;;25.77;22.95;;;;;;;33.00;64.11;100748.72;5073061;27;66771;-31
2022/08/15 02:44:31;;;;;;;20.55;18.35;;;;;;;33.03;64.67;100747.41;5061417;28;70758;-31
2022/08/15 02:47:14;;;;;;;19.73;17.45;;;;;;;33.01;64.39;100739.47;5043896;28;67214;-36
2022/08/15 02:49:54;;;;;;;19.33;16.13;;;;;;;33.07;64.16;100748.56;5076346;28;70659;-31
2022/08/15 02:52:29;;;;;;;17.25;15.30;;;;;;;33.08;64.21;100751.06;5078219;27;66525;-31
2022/08/15 02:55:02;;;;;;;15.60;14.02;;;;;;;33.10;64.25;100745.41;5058601;28;70306;-31
2022/08/15 02:57:36;;;;;;;16.67;14.98;;;;;;;33.12;64.37;100756.84;5079551;28;66869;-31
2022/08/15 03:00:29;;;;;;;15.02;12.90;;;;;;;33.03;64.32;100733.81;5060619;28;70641;-31
2022/08/15 03:03:12;;;;;;;17.83;12.85;;;;;;;33.11;64.15;100738.88;5063524;28;66569;-30
2022/08/15 03:05:51;;;;;;;14.88;13.57;;;;;;;33.10;64.09;100732.63;5059214;28;69561;-35
2022/08/15 03:08:26;;;;;;;12.85;11.50;;;;;;;33.18;64.43;100741.47;5062891;28;66607;-31
2022/08/15 03:10:59;;;;;;;17.77;11.55;;;;;;;33.20;64.43;100742.88;5082512;28;71396;-31
2022/08/15 03:13:36;;;;;;;17.38;14.15;;;;;;;32.77;64.15;100672.66;5062737;28;66250;-30
2022/08/15 03:16:15;;;;;;;15.15;11.50;;;;;;;33.25;63.98;100747.59;5061622;27;71041;-31
2022/08/15 03:18:55;;;;;;;13.30;11.13;;;;;;;33.25;64.14;100742.19;5074294;27;66722;-31
2022/08/15 03:21:29;;;;;;;16.80;10.85;;;;;;;33.25;64.44;100745.72;5062092;28;70606;-32
2022/08/15 03:24:04;;;;;;;12.32;10.57;;;;;;;33.29;64.18;100746.03;5081321;27;66127;-31
2022/08/15 03:26:38;;;;;;;12.07;11.07;;;;;;;33.28;63.97;100745.22;5061325;28;70348;-31
2022/08/15 03:29:20;;;;;;;12.93;11.60;;;;;;;33.30;63.98;100748.53;5062789;28;66378;-32
2022/08/15 03:31:56;;;;;;;13.27;10.13;;;;;;;33.29;64.06;100740.63;5062628;28;71095;-31
2022/08/15 03:34:29;;;;;;;11.35;10.25;;;;;;;33.33;64.00;100741.81;5077701;28;68069;-32
2022/08/15 03:37:03;;;;;;;11.00;9.90;;;;;;;33.35;63.78;100739.69;5064578;28;70889;-30
2022/08/15 03:39:36;;;;;;;15.20;11.30;;;;;;;33.28;63.52;100722.66;5064213;28;67513;-30
2022/08/15 03:42:11;;;;;;;14.50;9.82;;;;;;;33.37;63.71;100737.53;5063792;28;70609;-31
2022/08/15 03:44:51;;;;;;;10.38;9.05;;;;;;;33.37;63.69;100740.25;5076967;27;66864;-31
2022/08/15 03:47:25;;;;;;;12.07;9.95;;;;;;;33.38;63.69;100745.44;5064698;28;71978;-31
2022/08/15 03:49:59;;;;;;;12.63;10.55;;;;;;;33.31;63.45;100724.91;5063419;27;65877;-31
2022/08/15 03:52:54;;;;;;;13.68;9.40;;;;;;;33.28;63.46;100706.34;5081254;27;70046;-31
2022/08/15 03:55:30;;;;;;;13.45;9.80;;;;;;;33.44;63.31;100737.41;5062587;27;66985;-31
2022/08/15 03:58:06;;;;;;;10.52;9.35;;;;;;;33.37;63.24;100722.03;5064184;28;69737;-32
2022/08/15 04:00:48;;;;;;;12.35;9.40;;;;;;;33.29;63.23;100708.84;5080806;28;66780;-32
2022/08/15 04:03:29;;;;;;;9.85;8.85;;;;;;;32.77;63.09;100613.72;5063732;28;70799;-31
2022/08/15 04:06:07;;;;;;;13.38;9.68;;;;;;;32.93;62.64;100629.25;5081520;28;66936;-30
2022/08/15 04:08:49;;;;;;;9.70;8.77;;;;;;;33.47;63.06;100715.16;5061695;28;70685;-30
2022/08/15 04:11:48;;;;;;;10.02;9.05;;;;;;;33.46;62.93;100708.06;5061103;27;67432;-31
2022/08/15 04:14:28;;;;;;;9.48;8.77;;;;;;;33.41;62.95;100695.19;5063447;28;70040;-31
2022/08/15 04:17:10;;;;;;;10.57;9.47;;;;;;;33.45;62.87;100712.66;5057626;28;66192;-31
2022/08/15 04:19:55;;;;;;;10.27;9.13;;;;;;;33.49;62.68;100708.41;5061823;28;70107;-30
2022/08/15 04:22:39;;;;;;;11.43;9.45;;;;;;;33.49;62.78;100696.69;5064271;27;66331;-31
2022/08/15 04:25:35;;;;;;;10.10;9.20;;;;;;;33.54;62.34;100702.25;5062503;28;70870;-30
2022/08/15 04:28:27;;;;;;;10.38;9.27;;;;;;;33.51;62.44;100689.94;5062269;28;67177;-31
2022/08/15 04:31:23;;;;;;;11.68;10.02;;;;;;;33.54;62.12;100702.25;5060550;28;70540;-31
2022/08/15 04:34:03;;;;;;;18.27;10.80;;;;;;;33.52;62.36;100707.97;5080397;28;67029;-30
2022/08/15 04:36:56;;;;;;;15.65;11.07;;;;;;;33.54;62.38;100699.53;5081932;28;70599;-31
2022/08/15 04:39:32;;;;;;;15.05;10.88;;;;;;;33.31;62.48;100663.19;5079804;27;66448;-31
2022/08/15 04:42:08;;;;;;;11.40;10.02;;;;;;;33.55;62.52;100695.78;5062942;28;71112;-32
2022/08/15 04:44:54;;;;;;;15.55;10.48;;;;;;;33.56;62.36;100691.97;5062384;28;66485;-31
2022/08/15 04:47:28;;;;;;;12.15;10.95;;;;;;;33.41;62.10;100669.91;5063532;28;70301;-31
2022/08/15 04:50:09;;;;;;;12.43;11.13;;;;;;;33.56;62.11;100692.78;5077047;27;66727;-31
2022/08/15 04:52:47;;;;;;;16.02;11.27;;;;;;;33.04;61.93;100591.44;5065805;28;70191;-33
2022/08/15 04:55:24;;;;;;;16.25;12.27;;;;;;;32.82;62.44;100553.22;5062620;28;66983;-31
2022/08/15 04:58:16;;;;;;;13.32;11.68;;;;;;;33.58;62.31;100668.09;5075311;27;70072;-31
2022/08/15 05:01:14;;;;;;;13.57;12.07;;;;;;;33.59;62.80;100661.56;5061487;28;66813;-31
2022/08/15 05:03:56;;;;;;;19.30;12.20;;;;;;;33.55;62.71;100652.25;5060682;28;70598;-31
2022/08/15 05:06:30;;;;;;;13.55;12.30;;;;;;;33.60;62.70;100655.06;5074468;27;66481;-30
2022/08/15 05:09:08;;;;;;;13.45;11.43;;;;;;;33.60;62.94;100649.63;5062594;28;69935;-30
2022/08/15 05:11:40;;;;;;;15.73;12.02;;;;;;;33.63;63.26;100649.13;5062521;28;66071;-31
2022/08/15 05:14:33;;;;;;;12.90;11.75;;;;;;;33.63;62.76;100643.69;5061621;28;70311;-30
2022/08/15 05:17:25;;;;;;;15.05;11.40;;;;;;;33.63;62.79;100649.13;5049661;28;66753;-33
2022/08/15 05:20:21;;;;;;;15.50;11.88;;;;;;;33.57;62.98;100631.91;5062352;28;70686;-30
2022/08/15 05:23:13;;;;;;;14.65;11.32;;;;;;;33.61;63.57;100640.41;5073167;27;66705;-31
2022/08/15 05:25:59;;;;;;;12.82;11.32;;;;;;;33.12;63.69;100542.13;5061812;28;70645;-31
2022/08/15 05:28:32;;;;;;;13.95;11.23;;;;;;;33.70;63.21;100627.22;5044493;28;66115;-31
2022/08/15 05:31:11;;;;;;;13.93;10.55;;;;;;;33.71;63.56;100632.41;5078739;28;70810;-31
2022/08/15 05:33:48;;;;;;;13.15;11.18;;;;;;;33.35;63.92;100596.41;5053976;28;66881;-30
2022/08/15 05:36:35;;;;;;;12.40;11.05;;;;;;;33.20;61.73;100601.53;5060117;28;70583;-32
2022/08/15 05:39:27;;;;;;;10.95;9.70;;;;;;;32.45;60.63;100507.38;5059350;28;66036;-30
2022/08/15 05:42:16;;;;;;;11.93;10.82;;;;;;;32.21;59.75;100503.88;5055644;28;69994;-31
2022/08/15 05:45:21;;;;;;;9.95;9.20;;;;;;;32.46;59.09;100575.03;5061716;28;67608;-31
2022/08/15 05:48:11;;;;;;;10.48;9.57;;;;;;;31.86;58.61;100479.47;5059639;28;70951;-31
2022/08/15 05:51:12;;;;;;;10.32;9.35;;;;;;;31.66;58.02;100477.13;5053454;28;66287;-31
2022/08/15 05:54:17;;;;;;;10.70;9.88;;;;;;;32.04;57.46;100550.75;5075796;27;70970;-30
2022/08/15 05:57:12;;;;;;;9.63;8.93;;;;;;;32.04;55.96;100564.31;5055923;28;67029;-31
2022/08/15 05:59:53;;;;;;;9.30;8.70;;;;;;;31.43;55.74;100446.22;5079736;27;71366;-30
2022/08/15 06:02:52;;;;;;;9.55;8.80;;;;;;;31.94;55.01;100550.50;5047543;28;66300;-30
2022/08/15 06:05:38;;;;;;;9.52;8.65;;;;;;;31.90;54.76;100534.88;5075954;27;70415;-31
2022/08/15 06:08:20;;;;;;;8.95;8.25;;;;;;;31.81;54.11;100526.28;5056150;28;66890;-32
2022/08/15 06:11:15;;;;;;;8.95;8.25;;;;;;;31.77;53.65;100511.53;5079461;27;70747;-31
2022/08/15 06:13:57;;;;;;;9.07;8.40;;;;;;;31.76;53.60;100518.84;5079103;27;66425;-31
2022/08/15 06:16:39;;;;;;;8.15;7.55;;;;;;;31.72;53.24;100514.94;5047562;28;70953;-31
2022/08/15 06:19:31;;;;;;;8.70;7.90;;;;;;;31.59;52.47;100499.75;5045684;28;66905;-31
2022/08/15 06:22:17;;;;;;;12.25;7.05;;;;;;;31.52;52.65;100427.72;5055824;28;70773;-30
2022/08/15 06:25:14;;;;;;;8.15;7.55;;;;;;;32.02;50.76;100501.31;5077862;27;67454;-31
2022/08/15 06:28:38;;;;;;;7.53;6.80;;;;;;;32.09;50.13;100486.78;5044170;28;70657;-31
2022/08/15 06:31:38;;;;;;;7.88;7.18;;;;;;;31.74;49.01;100408.97;4996965;28;66506;-31
2022/08/15 06:34:24;;;;;;;7.47;6.97;;;;;;;32.27;48.91;100473.06;4994694;28;70395;-31
2022/08/15 06:37:29;;;;;;;7.75;7.13;;;;;;;32.27;48.77;100464.94;5080119;27;66964;-31
2022/08/15 06:40:22;;;;;;;8.25;7.43;;;;;;;31.76;47.65;100391.41;5065047;28;70837;-31
2022/08/15 06:43:01;;;;;;;7.68;7.07;;;;;;;32.21;49.11;100442.28;5081775;28;66882;-31
2022/08/15 06:46:05;;;;;;;7.32;6.72;;;;;;;32.09;48.16;100410.81;5062151;28;70659;-36
2022/08/15 06:49:03;;;;;;;7.68;6.93;;;;;;;31.67;47.70;100329.63;5064360;28;65759;-31
2022/08/15 06:51:44;;;;;;;10.48;7.55;;;;;;;32.22;47.97;100424.13;5061449;28;71180;-31
2022/08/15 06:54:27;;;;;;;9.57;8.57;;;;;;;31.90;51.49;100348.56;5084327;27;66621;-31
2022/08/15 06:57:28;;;;;;;13.48;9.77;;;;;;;32.57;54.21;100424.03;5063224;28;70137;-30
2022/08/15 07:00:09;;;;;;;13.15;9.32;;;;;;;32.71;55.90;100421.84;5060309;27;67167;-30
2022/08/15 07:03:30;;;;;;;11.98;10.55;;;;;;;32.81;58.11;100419.28;5057029;28;70875;-31
2022/08/15 07:06:19;;;;;;;10.35;9.23;;;;;;;32.45;57.91;100329.00;5064140;28;66210;-31
2022/08/15 07:09:02;;;;;;;12.37;10.67;;;;;;;32.65;58.25;100352.19;5048943;28;70818;-30
2022/08/15 07:12:09;;;;;;;10.48;9.48;;;;;;;33.06;59.11;100409.97;5082814;28;66954;-31
2022/08/15 07:15:21;;;;;;;11.43;10.30;;;;;;;33.08;59.08;100389.63;5077179;27;70163;-30
2022/08/15 07:18:07;;;;;;;18.00;10.38;;;;;;;33.25;59.50;100403.22;5049169;28;66352;-31
2022/08/15 07:20:46;;;;;;;22.80;10.53;;;;;;;33.31;58.87;100391.34;5062222;28;70772;-30
2022/08/15 07:23:26;;;;;;;17.58;11.15;;;;;;;33.37;59.03;100406.66;5078559;27;66466;-32
2022/08/15 07:26:11;;;;;;;14.57;10.95;;;;;;;33.37;59.81;100412.09;5063978;28;69700;-33
2022/08/15 07:28:51;;;;;;;16.23;9.80;;;;;;;33.44;59.76;100427.44;5064680;28;66931;-31
2022/08/15 07:31:33;;;;;;;10.63;9.60;;;;;;;33.45;59.87;100412.75;5062388;28;70512;-31
2022/08/15 07:34:25;;;;;;;13.50;9.88;;;;;;;33.45;59.46;100418.19;5066755;27;67164;-34
2022/08/15 07:37:06;;;;;;;16.33;9.93;;;;;;;33.49;59.58;100424.75;5063540;27;70500;-31
2022/08/15 07:39:45;;;;;;;12.43;9.25;;;;;;;32.98;59.59;100353.28;5048324;28;67419;-31
2022/08/15 07:42:24;;;;;;;13.40;9.15;;;;;;;33.50;59.41;100467.22;5063697;28;71131;-30
2022/08/15 07:45:08;;;;;;;11.75;8.88;;;;;;;33.40;59.50;100524.13;5074940;27;67108;-31
2022/08/15 07:47:59;;;;;;;8.40;7.60;;;;;;;33.45;60.09;100548.69;5083990;27;70404;-31
2022/08/15 07:50:41;;;;;;;12.10;8.32;;;;;;;33.49;59.83;100526.22;5064803;28;66820;-32
2022/08/15 07:53:23;;;;;;;8.48;7.60;;;;;;;33.40;60.05;100488.78;5079294;27;69943;-31
2022/08/15 07:56:07;;;;;;;10.55;7.68;;;;;;;33.49;60.32;100471.84;5060921;28;66371;-31
2022/08/15 07:59:22;;;;;;;10.00;7.18;;;;;;;33.42;61.55;100446.69;5062323;28;70919;-31
2022/08/15 08:02:06;;;;;;;8.23;7.45;;;;;;;32.93;61.29;100367.59;5064734;28;67212;-31
2022/08/15 08:05:01;;;;;;;10.90;7.97;;;;;;;33.48;61.45;100453.03;5075921;28;70849;-31
2022/08/15 08:07:45;;;;;;;10.27;8.23;;;;;;;32.93;62.28;100363.00;5064101;28;66995;-31
2022/08/15 08:10:56;;;;;;;9.48;7.55;;;;;;;33.50;61.95;100448.19;5062654;28;70701;-31
2022/08/15 08:14:06;;;;;;;12.18;8.55;;;;;;;32.86;63.73;100353.38;5062367;28;66463;-31
2022/08/15 08:17:09;;;;;;;9.57;8.30;;;;;;;33.36;63.43;100431.38;5079786;28;70132;-31
2022/08/15 08:20:05;;;;;;;13.98;8.23;;;;;;;33.44;63.49;100460.06;5078111;27;67068;-31
2022/08/15 08:23:15;;;;;;;14.80;8.68;;;;;;;33.37;63.94;100498.25;5063309;27;70427;-32
2022/08/15 08:26:17;;;;;;;12.23;8.32;;;;;;;33.30;64.16;100514.75;5079683;27;67008;-31
2022/08/15 08:29:07;;;;;;;12.77;8.68;;;;;;;33.36;64.81;100519.19;5059749;28;70187;-31
2022/08/15 08:32:08;;;;;;;13.98;7.50;;;;;;;33.33;64.73;100519.69;5062602;28;66758;-30
2022/08/15 08:35:24;;;;;;;12.70;7.40;;;;;;;33.22;64.78;100555.91;5080739;27;70380;-30
2022/08/15 08:38:57;;;;;;;13.23;7.63;;;;;;;33.27;64.52;100564.16;5062360;28;66296;-31
2022/08/15 08:41:49;;;;;;;10.35;7.25;;;;;;;33.32;64.77;100586.03;4978616;28;69621;-32
2022/08/15 08:44:29;;;;;;;13.65;7.95;;;;;;;33.37;63.95;100569.78;4977023;28;65942;-32
2022/08/15 08:47:11;;;;;;;9.93;7.43;;;;;;;33.36;64.33;100565.41;5052832;27;70847;-31
2022/08/15 08:50:10;;;;;;;7.22;6.45;;;;;;;33.31;64.36;100565.31;5079861;28;66156;-31
2022/08/15 08:53:06;;;;;;;8.43;6.22;;;;;;;33.31;63.59;100576.19;5080106;27;71173;-32
2022/08/15 08:56:06;;;;;;;11.32;6.35;;;;;;;33.16;64.70;100594.94;5078430;27;66243;-31
2022/08/15 08:59:09;;;;;;;9.50;6.57;;;;;;;33.11;64.39;100568.50;5080802;27;71103;-30
2022/08/15 09:01:42;;;;;;;11.93;6.32;;;;;;;33.09;63.83;100572.53;5081509;28;67655;-31
2022/08/15 09:04:23;;;;;;;8.23;5.22;;;;;;;33.26;63.94;100627.75;5080694;27;70871;-32
2022/08/15 09:06:58;;;;;;;7.75;5.72;;;;;;;33.21;63.76;100619.53;5080857;27;67247;-31
2022/08/15 09:09:36;;;;;;;6.80;5.47;;;;;;;33.23;63.86;100630.94;5079419;28;70055;-30
2022/08/15 09:15:26;;;;;;;8.93;5.32;;;;;;;33.04;64.36;100618.63;5079615;28;70550;-31
2022/08/15 09:18:30;;;;;;;6.25;5.03;;;;;;;33.10;64.12;100633.97;5077764;28;66478;-32
2022/08/15 09:21:05;;;;;;;6.05;5.18;;;;;;;33.15;63.55;100650.34;5076392;27;70940;-32
2022/08/15 09:23:43;;;;;;;4.75;4.30;;;;;;;32.67;63.64;100561.88;5058185;28;66817;-31
2022/08/15 09:26:27;;;;;;;8.68;4.38;;;;;;;32.56;63.75;100551.88;5079667;27;70987;-32
2022/08/15 09:29:09;;;;;;;4.95;3.83;;;;;;;32.41;63.37;100525.22;5079933;28;67175;-31
2022/08/15 09:32:09;;;;;;;4.97;4.28;;;;;;;32.92;63.73;100615.91;5074676;27;70474;-31
2022/08/15 09:35:08;;;;;;;4.32;3.92;;;;;;;33.01;63.53;100635.41;5073408;27;67124;-32
2022/08/15 09:37:56;;;;;;;4.57;4.07;;;;;;;32.45;63.83;100556.22;5079485;28;70842;-30
2022/08/15 09:40:37;;;;;;;6.60;3.58;;;;;;;32.45;63.86;100550.81;5081607;27;43035;-31
2022/08/15 09:44:09;;;;;;;4.97;4.10;;;;;;;32.72;64.48;100616.31;5076341;27;70572;-31
2022/08/15 09:47:33;;;;;;;3.67;3.35;;;;;;;32.75;64.04;100587.84;5053385;28;67072;-31
2022/08/15 09:50:57;;;;;;;4.30;3.22;;;;;;;32.76;64.09;100584.88;5079003;27;71083;-31
2022/08/15 09:53:45;;;;;;;5.32;3.30;;;;;;;32.81;63.85;100565.16;5059992;28;66289;-30
2022/08/15 09:56:37;;;;;;;4.32;3.08;;;;;;;32.82;63.74;100559.50;5075054;28;70772;-31
2022/08/15 09:59:26;;;;;;;3.40;3.10;;;;;;;32.54;63.59;100515.97;5076332;28;66189;-31
2022/08/15 10:02:21;;;;;;;4.00;3.28;;;;;;;32.61;64.11;100554.69;5080571;27;70279;-31
2022/08/15 10:05:23;;;;;;;3.10;2.80;;;;;;;32.38;63.90;100521.09;5078548;27;66918;-31
2022/08/15 10:08:05;;;;;;;3.08;2.53;;;;;;;32.72;64.04;100551.13;5074195;27;71014;-31
2022/08/15 10:10:53;;;;;;;3.25;2.67;;;;;;;32.16;64.20;100460.34;5076937;27;66627;-33
2022/08/15 10:13:28;;;;;;;3.10;2.80;;;;;;;32.68;63.66;100531.78;5064435;28;70919;-31
2022/08/15 10:16:01;;;;;;;3.83;2.70;;;;;;;32.67;63.88;100535.53;5083133;27;67085;-30
2022/08/15 10:18:55;;;;;;;3.20;2.90;;;;;;;32.54;64.28;100544.00;5081677;27;71778;-30
2022/08/15 10:21:44;;;;;;;11.00;3.22;;;;;;;32.47;64.25;100527.81;5083299;28;66776;-32
2022/08/15 10:24:43;;;;;;;4.90;3.63;;;;;;;32.61;65.16;100554.69;5078257;27;70024;-31
2022/08/15 10:27:22;;;;;;;5.85;3.38;;;;;;;32.59;64.96;100562.25;5081719;28;66237;-30
2022/08/15 10:30:15;;;;;;;3.67;3.00;;;;;;;31.94;65.80;100485.38;5082791;28;70247;-32
2022/08/15 10:33:25;;;;;;;;;;;;;;;32.16;66.67;100586.00;5082782;28;67467;-31
2022/08/15 10:36:23;;;;;;;3.10;2.80;;;;;;;32.35;65.93;100588.59;5066369;28;70804;-32
2022/08/15 10:39:24;;;;;;;3.35;3.05;;;;;;;32.36;66.05;100585.63;5079932;28;66747;-32
2022/08/15 10:42:17;;;;;;;6.55;3.90;;;;;;;32.42;66.65;100590.09;5077572;28;70865;-31
2022/08/15 10:45:24;;;;;;;4.90;3.60;;;;;;;32.44;66.43;100589.88;5080227;28;66739;-32
2022/08/15 10:48:34;;;;;;;4.93;3.55;;;;;;;32.33;67.50;100599.69;5069109;28;70657;-31
2022/08/15 10:51:23;;;;;;;5.03;3.80;;;;;;;32.40;67.08;100608.53;5081984;28;66255;-32
2022/08/15 10:54:23;;;;;;;8.13;4.22;;;;;;;32.28;67.73;100621.28;5063389;27;71167;-31
2022/08/15 10:57:09;;;;;;;4.53;4.13;;;;;;;31.87;66.63;100532.63;5077550;28;65853;-33
2022/08/15 10:59:45;;;;;;;4.65;4.25;;;;;;;32.38;66.68;100621.53;5075355;28;70622;-32
2022/08/15 11:02:40;;;;;;;4.78;4.38;;;;;;;31.89;67.11;100558.47;5062870;28;67212;-34
2022/08/15 11:05:20;;;;;;;6.50;4.47;;;;;;;31.72;67.26;100531.22;5079487;28;69579;-32
2022/08/15 11:07:55;;;;;;;5.10;4.57;;;;;;;31.78;66.88;100537.59;5080163;28;66342;-32
2022/08/15 11:10:32;;;;;;;4.93;4.53;;;;;;;32.33;67.05;100645.00;5074992;27;70074;-31
2022/08/15 11:13:14;;;;;;;5.80;4.82;;;;;;;32.30;67.22;100640.06;5077681;28;67350;-32
2022/08/15 11:15:56;;;;;;;4.88;4.55;;;;;;;32.23;67.77;100656.44;5078309;28;70252;-33
2022/08/15 11:18:38;;;;;;;5.03;4.63;;;;;;;32.23;67.79;100670.00;5045127;28;66634;-33
2022/08/15 11:21:29;;;;;;;5.15;4.65;;;;;;;32.23;67.37;100680.88;5027291;28;70850;-33
2022/08/15 11:24:06;;;;;;;5.65;5.10;;;;;;;32.25;67.47;100684.19;5075721;28;65781;-33
2022/08/15 11:26:48;;;;;;;5.70;5.28;;;;;;;32.24;67.79;100693.38;5043869;28;69715;-32
2022/08/15 11:29:25;;;;;;;5.40;4.90;;;;;;;32.23;67.45;100689.00;5039165;28;67392;-33
2022/08/15 11:31:59;;;;;;;8.00;5.57;;;;;;;31.77;67.51;100614.59;5076470;28;70083;-33
2022/08/15 11:34:54;;;;;;;5.35;4.95;;;;;;;32.18;67.62;100681.59;5063635;28;66226;-33
2022/08/15 11:37:42;;;;;;;5.85;5.45;;;;;;;32.20;67.64;100711.19;5078805;28;70773;-30
2022/08/15 11:40:33;;;;;;;6.80;6.20;;;;;;;31.84;70.35;100712.94;5079022;28;67032;-33
2022/08/15 11:43:15;;;;;;;7.28;6.70;;;;;;;31.61;71.04;100681.97;5078770;28;71249;-31
2022/08/15 11:45:51;;;;;;;10.18;6.22;;;;;;;31.58;71.83;100693.28;5078922;28;66812;-32
2022/08/15 11:48:31;;;;;;;8.93;5.93;;;;;;;31.12;72.26;100626.97;5078660;28;70886;-31
2022/08/15 11:51:15;;;;;;;6.97;6.38;;;;;;;31.51;72.68;100698.00;5081245;28;66132;-31
2022/08/15 11:54:19;;;;;;;6.47;5.95;;;;;;;31.43;73.22;100695.59;5081414;27;71096;-33
2022/08/15 11:57:07;;;;;;;7.03;6.35;;;;;;;31.51;73.66;100698.00;5078199;27;66241;-32
2022/08/15 12:00:22;;;;;;;7.97;5.93;;;;;;;30.97;73.31;100615.69;5081133;27;70835;-31
2022/08/15 12:02:58;;;;;;;6.68;6.18;;;;;;;31.47;73.94;100695.97;5058729;28;66550;-33
2022/08/15 12:05:38;;;;;;;8.52;6.45;;;;;;;31.45;73.89;100698.06;5082072;28;69771;-32
2022/08/15 12:08:33;;;;;;;6.82;6.18;;;;;;;31.33;73.69;100679.81;5079175;27;67319;-31
2022/08/15 12:11:19;;;;;;;15.80;6.80;;;;;;;31.36;74.28;100701.09;5074249;27;70919;-32
2022/08/15 12:14:18;;;;;;;9.80;6.70;;;;;;;31.32;74.72;100704.47;5077342;28;67943;-32
2022/08/15 12:17:05;;;;;;;9.48;7.57;;;;;;;30.85;74.68;100612.09;5079938;28;70170;-31
2022/08/15 12:19:47;;;;;;;9.57;6.68;;;;;;;31.41;74.44;100713.13;5081047;28;66154;-35
2022/08/15 12:22:43;;;;;;;9.32;7.60;;;;;;;31.37;74.28;100723.59;5074614;27;70812;-31
2022/08/15 12:25:30;;;;;;;11.10;9.15;;;;;;;31.08;74.42;100709.72;5080730;28;66172;-31
2022/08/15 12:28:25;;;;;;;15.10;8.75;;;;;;;30.38;74.75;100617.16;5078684;28;70654;-30
2022/08/15 12:31:38;;;;;;;10.23;8.88;;;;;;;30.66;75.36;100701.38;5080171;28;68121;-31
2022/08/15 12:34:34;;;;;;;8.82;7.82;;;;;;;30.34;75.86;100613.22;5076801;27;70394;-31
2022/08/15 12:37:13;;;;;;;7.72;6.97;;;;;;;30.61;75.23;100644.38;5079493;28;66794;-31
2022/08/15 12:40:07;;;;;;;9.63;7.28;;;;;;;31.10;75.34;100732.00;5077624;28;70782;-32
2022/08/15 12:43:00;;;;;;;11.27;7.75;;;;;;;31.19;75.74;100745.25;5079341;28;66622;-33
2022/08/15 12:45:39;;;;;;;7.07;6.47;;;;;;;30.85;75.80;100687.91;5079331;28;70358;-32
2022/08/15 12:48:25;;;;;;;7.05;6.53;;;;;;;30.77;75.55;100666.50;5078356;28;66616;-30
2022/08/15 12:51:09;;;;;;;7.35;6.70;;;;;;;31.29;75.52;100751.00;5079010;28;70252;-32